Time;durP1;ratioP1;P1;durP2;ratioP2;P2;SDS_P1;SDS_P2;PMS_P1;PMS_P2;Temp;Humidity;BMP_temperature;BMP_pressure;BME280_temperature;BME280_humidity;BME280_pressure;Samples;Min_cycle;Max_cycle;Signal;HPM_P1;HPM_P2
2022/09/08 00:01:15;;;;;;;4.20;1.20;;;;;;;19.38;76.47;100412.81;4994818;28;20405;-68
2022/09/08 00:03:43;;;;;;;5.80;1.77;;;;;;;19.47;76.26;100428.13;4995094;28;20409;-68
2022/09/08 00:06:13;;;;;;;3.88;1.20;;;;;;;19.36;75.89;100431.94;4993069;28;20057;-67
2022/09/08 00:08:41;;;;;;;7.75;1.45;;;;;;;19.36;75.99;100426.34;4996490;28;20062;-67
2022/09/08 00:11:10;;;;;;;5.65;1.70;;;;;;;19.33;75.95;100427.94;4993783;28;20042;-65
2022/09/08 00:13:39;;;;;;;8.38;1.95;;;;;;;19.19;76.98;100427.72;4994584;28;20133;-67
2022/09/08 00:16:08;;;;;;;6.18;1.60;;;;;;;19.18;76.43;100437.25;4996400;28;20536;-67
2022/09/08 00:18:39;;;;;;;5.47;1.40;;;;;;;19.29;77.25;100432.63;4978598;28;20429;-67
2022/09/08 00:21:07;;;;;;;7.93;1.45;;;;;;;19.24;76.90;100434.94;4993565;28;20053;-65
2022/09/08 00:23:34;;;;;;;4.82;1.40;;;;;;;19.18;76.03;100439.25;4994234;28;20058;-67
2022/09/08 00:26:02;;;;;;;5.15;1.60;;;;;;;19.21;76.54;100439.31;4997893;28;20046;-67
2022/09/08 00:28:30;;;;;;;7.43;1.30;;;;;;;19.08;76.64;100433.16;5015438;28;20045;-67
2022/09/08 00:30:59;;;;;;;6.57;1.35;;;;;;;18.81;78.22;100433.53;4991609;28;20050;-67
2022/09/08 00:33:29;;;;;;;6.28;1.40;;;;;;;18.70;78.51;100430.56;4993766;28;20054;-67
2022/09/08 00:35:57;;;;;;;5.75;1.33;;;;;;;19.04;78.64;100431.47;4994093;28;20077;-67
2022/09/08 00:38:26;;;;;;;5.18;1.27;;;;;;;18.95;77.20;100434.53;4996043;28;20054;-67
2022/09/08 00:40:53;;;;;;;3.92;1.20;;;;;;;18.72;78.15;100430.19;4995678;28;20050;-69
2022/09/08 00:43:35;;;;;;;9.70;1.80;;;;;;;18.82;78.41;100423.97;4994455;28;20046;-67
2022/09/08 00:46:08;;;;;;;9.57;1.55;;;;;;;18.56;78.50;100415.59;4994116;28;20065;-67
2022/09/08 00:48:45;;;;;;;8.23;1.50;;;;;;;18.72;77.99;100419.03;4995863;28;20746;-67
2022/09/08 00:51:13;;;;;;;5.55;1.52;;;;;;;18.58;79.34;100421.59;4994801;28;20046;-67
2022/09/08 00:53:41;;;;;;;10.05;1.92;;;;;;;18.63;78.72;100424.06;4994216;28;20458;-67
2022/09/08 00:56:08;;;;;;;6.95;1.73;;;;;;;18.60;79.83;100430.41;4994344;28;20050;-67
2022/09/08 00:58:37;;;;;;;8.70;1.85;;;;;;;18.42;78.54;100423.72;4995213;28;20065;-67
2022/09/08 01:01:06;;;;;;;8.07;1.70;;;;;;;18.52;78.91;100426.69;4993928;28;20042;-67
2022/09/08 01:03:34;;;;;;;7.45;1.60;;;;;;;18.58;78.79;100436.38;4995097;28;20050;-67
2022/09/08 01:12:44;;;;;;;8.48;1.25;;;;;;;18.55;79.96;100425.16;4993958;28;20050;-66
2022/09/08 01:15:19;;;;;;;5.78;1.40;;;;;;;18.27;79.63;100436.56;4994108;28;20046;-67
2022/09/08 01:17:48;;;;;;;7.82;1.33;;;;;;;18.36;80.83;100434.34;4995006;28;20053;-67
2022/09/08 01:20:17;;;;;;;7.10;1.38;;;;;;;18.45;79.71;100429.34;4994230;28;20046;-67
2022/09/08 01:22:54;;;;;;;5.15;1.60;;;;;;;18.49;80.47;100437.78;4993612;28;20046;-67
2022/09/08 01:25:47;;;;;;;8.50;2.03;;;;;;;18.79;79.03;100438.69;4993105;28;20050;-65
2022/09/08 01:28:19;;;;;;;5.35;1.45;;;;;;;18.73;79.09;100445.75;4993530;28;20050;-68
2022/09/08 01:30:47;;;;;;;5.13;1.52;;;;;;;18.63;79.00;100444.41;4989941;28;20061;-65
2022/09/08 01:33:16;;;;;;;4.72;1.30;;;;;;;18.67;79.38;100441.69;4993300;28;20056;-67
2022/09/08 01:35:44;;;;;;;5.30;1.20;;;;;;;18.55;79.34;100444.69;4994739;28;20394;-68
2022/09/08 01:38:11;;;;;;;6.25;1.40;;;;;;;18.57;79.31;100445.88;4985605;28;20054;-67
2022/09/08 01:40:38;;;;;;;10.10;1.77;;;;;;;18.39;80.56;100458.72;4995468;28;20062;-68
2022/09/08 01:43:07;;;;;;;6.20;1.73;;;;;;;18.35;80.49;100468.19;4993512;28;20422;-66
2022/09/08 01:45:36;;;;;;;6.93;1.48;;;;;;;18.40;79.73;100465.94;4994421;28;20678;-67
2022/09/08 01:48:03;;;;;;;6.43;1.77;;;;;;;18.55;79.66;100455.84;4993899;28;20050;-67
2022/09/08 01:50:30;;;;;;;8.43;2.00;;;;;;;18.38;79.61;100475.78;4978648;28;20057;-68
2022/09/08 01:52:58;;;;;;;6.68;1.30;;;;;;;18.33;79.78;100468.56;4975353;28;20054;-68
2022/09/08 01:55:25;;;;;;;5.75;1.33;;;;;;;18.21;80.79;100470.72;4992045;28;20065;-68
2022/09/08 01:57:52;;;;;;;4.15;1.20;;;;;;;18.42;81.08;100468.34;4993248;28;20058;-67
2022/09/08 02:00:20;;;;;;;5.35;1.50;;;;;;;18.60;80.98;100475.03;4994718;28;20057;-66
2022/09/08 02:02:47;;;;;;;9.68;1.58;;;;;;;18.56;79.85;100483.34;4993379;28;20047;-66
2022/09/08 02:05:14;;;;;;;6.70;1.45;;;;;;;18.67;80.00;100475.16;4994618;28;20053;-65
2022/09/08 02:07:42;;;;;;;10.85;1.67;;;;;;;18.58;79.35;100469.03;4993262;28;20054;-68
2022/09/08 02:10:09;;;;;;;7.25;1.50;;;;;;;18.55;79.39;100467.00;4990045;28;20059;-66
2022/09/08 02:12:36;;;;;;;8.30;1.45;;;;;;;18.35;80.78;100474.56;4994247;28;20058;-67
2022/09/08 02:15:04;;;;;;;5.05;1.10;;;;;;;18.50;80.95;100478.44;4994495;28;20065;-68
2022/09/08 02:17:32;;;;;;;6.22;1.38;;;;;;;18.37;79.99;100472.22;4994420;28;20065;-67
2022/09/08 02:19:59;;;;;;;4.75;1.27;;;;;;;18.54;79.99;100480.13;4993245;28;20065;-67
2022/09/08 02:22:26;;;;;;;6.32;1.50;;;;;;;18.37;80.45;100472.22;4994109;28;20414;-66
2022/09/08 02:24:53;;;;;;;7.82;1.38;;;;;;;18.37;80.29;100472.22;4991917;28;20050;-67
2022/09/08 02:27:20;;;;;;;7.95;1.70;;;;;;;18.36;79.96;100472.59;4991880;28;20078;-67
2022/09/08 02:29:49;;;;;;;9.13;1.50;;;;;;;18.30;80.30;100471.28;4976249;28;20065;-67
2022/09/08 02:32:16;;;;;;;6.05;1.45;;;;;;;18.49;80.75;100455.34;4994285;28;20060;-67
2022/09/08 02:34:43;;;;;;;9.27;1.40;;;;;;;18.31;79.70;100464.53;4992525;28;20046;-67
2022/09/08 02:37:10;;;;;;;7.05;1.52;;;;;;;18.29;81.11;100456.53;4993369;28;20065;-65
2022/09/08 02:39:37;;;;;;;5.50;1.52;;;;;;;18.37;80.66;100452.72;4994469;28;20057;-67
2022/09/08 02:42:06;;;;;;;6.78;1.40;;;;;;;18.37;80.94;100441.56;4995069;28;20058;-66
2022/09/08 02:44:33;;;;;;;7.25;1.83;;;;;;;18.25;81.70;100449.28;4997959;28;20050;-67
2022/09/08 02:47:00;;;;;;;8.07;1.50;;;;;;;18.33;81.31;100446.25;4996190;28;20054;-67
2022/09/08 02:49:30;;;;;;;8.23;1.67;;;;;;;18.23;82.38;100458.03;4997890;28;20050;-67
2022/09/08 02:51:57;;;;;;;12.50;1.80;;;;;;;18.03;81.62;100447.28;4997320;28;20057;-67
2022/09/08 02:54:25;;;;;;;7.63;1.60;;;;;;;17.92;82.50;100438.72;4997985;28;20294;-67
2022/09/08 02:56:52;;;;;;;8.38;1.80;;;;;;;17.99;83.60;100442.44;4997270;28;20055;-67
2022/09/08 02:59:19;;;;;;;5.22;1.63;;;;;;;17.84;83.02;100437.78;4996442;28;20050;-66
2022/09/08 03:01:47;;;;;;;4.72;1.55;;;;;;;18.02;83.89;100440.09;4995853;28;20042;-67
2022/09/08 03:04:14;;;;;;;8.50;1.95;;;;;;;18.06;83.10;100436.22;4996094;28;20054;-66
2022/09/08 03:06:43;;;;;;;6.78;2.03;;;;;;;17.87;83.94;100439.81;4996941;28;20058;-66
2022/09/08 03:09:10;;;;;;;9.38;2.10;;;;;;;18.07;84.33;100431.41;4994106;28;20054;-67
2022/09/08 03:11:38;;;;;;;8.23;1.98;;;;;;;17.95;83.69;100421.25;4997152;28;20081;-67
2022/09/08 03:14:06;;;;;;;6.40;1.90;;;;;;;18.05;83.57;100425.41;4996391;28;20065;-67
2022/09/08 03:16:33;;;;;;;8.10;1.52;;;;;;;18.11;82.78;100423.94;4997027;28;20069;-67
2022/09/08 03:19:01;;;;;;;8.05;1.80;;;;;;;17.98;83.19;100420.53;4996492;28;20069;-66
2022/09/08 03:21:28;;;;;;;7.90;1.40;;;;;;;17.94;83.87;100428.81;4995362;28;20054;-66
2022/09/08 03:23:55;;;;;;;9.13;1.80;;;;;;;18.03;83.83;100420.22;4997595;28;20058;-66
2022/09/08 03:26:24;;;;;;;9.35;1.67;;;;;;;18.03;84.22;100419.44;4995677;28;20049;-67
2022/09/08 03:28:52;;;;;;;9.57;2.20;;;;;;;17.96;84.05;100414.50;4996105;28;20058;-67
2022/09/08 03:31:20;;;;;;;7.40;1.88;;;;;;;17.76;83.45;100410.16;4996731;28;20051;-67
2022/09/08 03:33:48;;;;;;;9.48;1.80;;;;;;;17.88;83.20;100413.59;4996965;28;20513;-67
2022/09/08 03:36:17;;;;;;;9.88;2.10;;;;;;;17.93;84.26;100413.28;4996816;28;20042;-69
2022/09/08 03:38:45;;;;;;;5.72;1.35;;;;;;;17.77;83.98;100408.97;4988831;28;20070;-67
2022/09/08 03:41:14;;;;;;;12.38;2.22;;;;;;;18.08;83.81;100413.53;4995043;28;20054;-66
2022/09/08 03:43:43;;;;;;;10.27;2.05;;;;;;;18.20;82.99;100403.00;4997174;28;20057;-67
2022/09/08 03:46:11;;;;;;;10.60;1.97;;;;;;;18.09;82.44;100406.78;4996569;28;20054;-67
2022/09/08 03:48:39;;;;;;;10.32;1.95;;;;;;;18.09;82.72;100406.78;4979668;28;20049;-67
2022/09/08 03:51:14;;;;;;;10.77;2.40;;;;;;;18.01;82.15;100405.84;4975384;28;20441;-67
2022/09/08 03:53:43;;;;;;;6.75;2.15;;;;;;;18.10;82.69;100406.41;4996744;28;20054;-67
2022/09/08 03:56:11;;;;;;;9.38;1.85;;;;;;;18.24;82.66;100403.06;4996164;28;20693;-66
2022/09/08 03:58:39;;;;;;;10.75;2.33;;;;;;;18.23;82.42;100395.88;4994647;28;20051;-66
2022/09/08 04:01:17;;;;;;;8.20;1.85;;;;;;;18.33;82.06;100398.84;4995651;28;20053;-67
2022/09/08 04:03:44;;;;;;;12.25;1.95;;;;;;;18.34;82.61;100403.22;4996664;28;20061;-66
2022/09/08 04:06:13;;;;;;;12.13;2.13;;;;;;;18.41;82.10;100414.53;4997012;28;20058;-67
2022/09/08 04:08:40;;;;;;;11.30;2.13;;;;;;;18.25;82.37;100408.28;4994630;28;20054;-69
2022/09/08 04:11:08;;;;;;;10.00;2.35;;;;;;;18.17;82.17;100398.16;4992056;28;20529;-66
2022/09/08 04:13:36;;;;;;;12.23;2.20;;;;;;;18.23;82.01;100407.84;4993194;28;20061;-68
2022/09/08 04:16:03;;;;;;;10.80;2.03;;;;;;;18.27;82.02;100407.91;4996010;28;20086;-68
2022/09/08 04:18:32;;;;;;;9.90;2.28;;;;;;;18.28;82.26;100407.53;4976978;28;20061;-68
2022/09/08 04:21:00;;;;;;;7.38;2.00;;;;;;;18.46;81.86;100411.44;4982024;28;20053;-68
2022/09/08 04:23:28;;;;;;;11.00;2.03;;;;;;;18.35;81.55;100398.47;4996060;28;20053;-69
2022/09/08 04:26:07;;;;;;;11.18;2.80;;;;;;;18.24;81.49;100403.88;4995853;28;20050;-67
2022/09/08 04:28:34;;;;;;;12.15;2.60;;;;;;;18.21;81.80;100404.63;4999896;28;20045;-67
2022/09/08 04:31:03;;;;;;;12.30;2.22;;;;;;;18.32;81.49;100400.03;5007315;28;20054;-67
2022/09/08 04:33:31;;;;;;;10.27;2.13;;;;;;;18.45;81.63;100395.88;4996247;28;20074;-66
2022/09/08 04:35:58;;;;;;;10.50;2.22;;;;;;;18.19;81.31;100392.22;5026421;28;20042;-67
2022/09/08 04:38:45;;;;;;;8.73;2.10;;;;;;;18.80;82.12;100390.88;4989295;28;20410;-67
2022/09/08 04:41:16;;;;;;;11.32;2.75;;;;;;;18.52;80.98;100390.41;4976539;28;20499;-67
2022/09/08 04:43:43;;;;;;;;;;;;;;;18.77;80.32;100388.03;4996504;28;20062;-68
2022/09/08 04:46:13;;;;;;;11.45;2.10;;;;;;;18.94;80.33;100391.06;4994117;28;19922;-68
2022/09/08 04:48:42;;;;;;;10.35;2.20;;;;;;;18.86;80.00;100388.56;5010609;28;20065;-67
2022/09/08 04:51:15;;;;;;;12.15;2.80;;;;;;;18.68;80.33;100396.66;4994106;28;20038;-68
2022/09/08 04:53:43;;;;;;;11.98;2.00;;;;;;;18.71;81.56;100395.09;4995094;28;20046;-67
2022/09/08 04:56:11;;;;;;;11.05;2.30;;;;;;;18.83;80.54;100392.06;4993860;28;20046;-67
2022/09/08 04:58:41;;;;;;;11.10;2.58;;;;;;;18.86;80.71;100394.13;4994757;28;20613;-68
2022/09/08 05:01:11;;;;;;;9.30;2.15;;;;;;;19.00;80.17;100395.13;4994282;28;20050;-67
2022/09/08 05:03:39;;;;;;;12.13;2.40;;;;;;;18.84;79.80;100386.16;4994539;28;20054;-68
2022/09/08 05:06:10;;;;;;;9.57;2.33;;;;;;;18.76;79.69;100386.38;4993058;28;20042;-68
2022/09/08 05:08:37;;;;;;;11.32;2.35;;;;;;;18.87;80.40;100392.94;4983707;28;20652;-67
2022/09/08 05:11:05;;;;;;;9.00;2.40;;;;;;;18.89;79.02;100393.38;4983511;28;20062;-67
2022/09/08 05:13:32;;;;;;;10.50;2.50;;;;;;;18.80;79.28;100395.63;4994324;28;20503;-67
2022/09/08 05:16:07;;;;;;;10.45;2.25;;;;;;;18.85;79.16;100386.94;4993847;28;20418;-68
2022/09/08 05:18:35;;;;;;;12.93;2.88;;;;;;;18.96;78.62;100396.28;4993610;28;20545;-67
2022/09/08 05:21:03;;;;;;;12.65;2.15;;;;;;;18.93;78.94;100385.88;4994745;28;20042;-68
2022/09/08 05:23:30;;;;;;;12.23;2.47;;;;;;;18.91;78.87;100389.03;4995550;28;20058;-68
2022/09/08 05:26:06;;;;;;;9.68;2.58;;;;;;;18.79;78.64;100391.25;4976560;28;20038;-67
2022/09/08 05:28:38;;;;;;;10.75;2.00;;;;;;;18.84;79.62;100405.69;4995295;28;20065;-69
2022/09/08 05:31:12;;;;;;;11.88;2.45;;;;;;;18.96;79.16;100397.09;4993751;28;20517;-67
2022/09/08 05:33:39;;;;;;;12.52;2.58;;;;;;;18.77;78.38;100401.97;4995008;28;20054;-67
2022/09/08 05:36:15;;;;;;;10.57;2.15;;;;;;;18.78;78.90;100406.34;4994474;28;20038;-67
2022/09/08 05:38:43;;;;;;;11.27;2.42;;;;;;;18.77;78.67;100413.13;4995663;28;20054;-67
2022/09/08 05:41:11;;;;;;;12.00;2.53;;;;;;;18.82;79.45;100410.00;4993253;28;20050;-67
2022/09/08 05:43:39;;;;;;;10.23;2.63;;;;;;;18.61;79.29;100413.28;5026484;28;20085;-68
2022/09/08 05:46:07;;;;;;;13.10;2.88;;;;;;;18.70;79.28;100411.03;4994412;28;20046;-68
2022/09/08 05:48:35;;;;;;;8.10;2.40;;;;;;;18.88;79.63;100414.09;4995430;28;20401;-69
2022/09/08 05:51:07;;;;;;;8.95;2.08;;;;;;;18.48;80.19;100409.06;4993359;28;20050;-68
2022/09/08 05:53:35;;;;;;;10.20;2.40;;;;;;;18.68;80.93;100413.41;4994223;28;20058;-68
2022/09/08 05:56:05;;;;;;;12.77;2.40;;;;;;;18.79;80.48;100413.56;4993216;28;20042;-68
2022/09/08 05:58:32;;;;;;;11.55;2.60;;;;;;;18.92;79.41;100412.16;4994885;28;20050;-67
2022/09/08 06:01:08;;;;;;;13.40;2.42;;;;;;;18.93;79.14;100414.56;4992717;28;20054;-67
2022/09/08 06:03:36;;;;;;;11.32;2.40;;;;;;;19.29;78.59;100417.84;5026609;28;20525;-67
2022/09/08 06:06:09;;;;;;;9.63;2.00;;;;;;;19.23;78.63;100416.59;5009333;28;20049;-68
2022/09/08 06:08:39;;;;;;;22.92;3.40;;;;;;;19.08;77.89;100413.59;4994649;28;20054;-67
2022/09/08 06:11:07;;;;;;;16.65;3.58;;;;;;;19.02;78.63;100408.72;4993899;28;20429;-67
2022/09/08 06:13:35;;;;;;;18.30;4.35;;;;;;;19.11;78.31;100420.41;4995219;28;20057;-67
2022/09/08 06:16:08;;;;;;;18.98;4.78;;;;;;;19.01;77.70;100421.06;4994379;28;20418;-67
2022/09/08 06:18:37;;;;;;;15.23;3.47;;;;;;;19.09;78.80;100414.38;4999160;28;20406;-68
2022/09/08 06:21:05;;;;;;;12.53;3.43;;;;;;;18.99;77.67;100418.66;4996738;28;20053;-66
2022/09/08 06:23:33;;;;;;;14.18;3.83;;;;;;;19.18;78.28;100414.13;4997358;28;20293;-67
2022/09/08 06:26:15;;;;;;;13.98;3.47;;;;;;;19.18;80.26;100417.72;4997600;28;20046;-66
2022/09/08 06:28:52;;;;;;;14.77;3.25;;;;;;;19.12;79.79;100412.84;4998638;28;20054;-67
2022/09/08 06:31:27;;;;;;;12.65;3.33;;;;;;;19.12;80.93;100410.88;5011707;28;20077;-67
2022/09/08 06:33:57;;;;;;;17.30;3.67;;;;;;;19.22;79.93;100412.16;4999013;28;20054;-69
2022/09/08 06:36:33;;;;;;;15.02;2.83;;;;;;;19.28;79.56;100411.47;4995939;28;20034;-65
2022/09/08 06:39:06;;;;;;;13.45;3.47;;;;;;;19.44;79.09;100405.72;4996908;28;20054;-64
2022/09/08 06:41:57;;;;;;;26.00;11.73;;;;;;;19.53;79.53;100409.81;4994973;28;20038;-63
2022/09/08 06:44:30;;;;;;;13.43;5.63;;;;;;;19.69;80.14;100404.00;5003652;28;20069;-63
2022/09/08 06:46:57;;;;;;;18.13;5.85;;;;;;;19.75;81.01;100397.69;4997326;28;20418;-63
2022/09/08 06:49:26;;;;;;;22.05;7.32;;;;;;;19.51;78.17;100406.59;4995093;28;20053;-64
2022/09/08 06:52:21;;;;;;;26.00;10.60;;;;;;;19.54;76.64;100402.25;5004971;28;20050;-64
2022/09/08 06:55:27;;;;;;;31.70;14.60;;;;;;;19.47;76.51;100402.97;4989465;28;20046;-65
2022/09/08 06:58:13;;;;;;;20.92;5.50;;;;;;;19.72;77.71;100406.03;4988779;28;20490;-65
2022/09/08 07:00:44;;;;;;;21.88;4.70;;;;;;;20.03;73.94;100419.56;4993805;28;21157;-64
2022/09/08 07:03:38;;;;;;;18.33;4.25;;;;;;;20.12;72.24;100412.47;4989507;28;20066;-64
2022/09/08 07:06:07;;;;;;;17.45;3.22;;;;;;;20.33;69.65;100411.88;4991038;28;20057;-64
2022/09/08 07:08:59;;;;;;;16.00;3.40;;;;;;;20.42;68.81;100403.97;4996290;28;20049;-64
2022/09/08 07:11:42;;;;;;;16.40;3.25;;;;;;;20.34;68.53;100413.50;4989548;28;20050;-64
2022/09/08 07:14:34;;;;;;;26.00;3.95;;;;;;;20.35;68.31;100420.69;4989261;28;20046;-66
2022/09/08 07:17:09;;;;;;;16.30;2.90;;;;;;;20.39;67.68;100417.94;4995090;28;20038;-66
2022/09/08 07:19:49;;;;;;;16.60;2.90;;;;;;;20.37;67.93;100411.91;4985103;28;20054;-66
2022/09/08 07:22:16;;;;;;;;;;;;;;;20.23;68.32;100414.59;4996080;28;20084;-64
2022/09/08 07:24:45;;;;;;;25.00;3.70;;;;;;;20.19;68.57;100416.56;4991512;28;19922;-64
2022/09/08 07:27:13;;;;;;;25.13;5.95;;;;;;;20.12;69.59;100418.06;4995354;28;20038;-63
2022/09/08 07:29:45;;;;;;;26.38;4.68;;;;;;;20.25;70.13;100417.81;4995085;28;20061;-63
2022/09/08 07:32:16;;;;;;;25.30;6.05;;;;;;;20.26;69.40;100416.63;4981031;28;20080;-64
2022/09/08 07:34:52;;;;;;;23.80;6.88;;;;;;;20.15;69.92;100406.09;4992699;28;20057;-64
2022/09/08 07:37:21;;;;;;;28.33;5.25;;;;;;;20.20;70.19;100413.38;4996917;28;20041;-64
2022/09/08 07:40:20;;;;;;;41.55;5.93;;;;;;;20.35;69.75;100414.28;4993527;28;20059;-64
2022/09/08 07:42:57;;;;;;;53.58;6.28;;;;;;;20.45;69.21;100410.81;4995099;28;20065;-64
2022/09/08 07:45:38;;;;;;;31.08;4.72;;;;;;;20.34;69.64;100421.09;4994495;28;20707;-65
2022/09/08 07:48:22;;;;;;;26.08;4.20;;;;;;;20.42;70.10;100417.97;4994018;28;20061;-66
2022/09/08 07:51:00;;;;;;;20.27;4.43;;;;;;;20.35;69.84;100422.69;4993355;28;20043;-64
2022/09/08 07:53:42;;;;;;;37.95;6.97;;;;;;;20.53;69.88;100416.06;4994466;28;20459;-64
2022/09/08 07:56:39;;;;;;;41.20;14.98;;;;;;;20.56;69.29;100409.69;4996748;28;20046;-64
2022/09/08 07:59:42;;;;;;;24.92;6.35;;;;;;;20.61;69.50;100414.13;4989925;28;20580;-64
2022/09/08 08:02:36;;;;;;;24.02;5.05;;;;;;;20.60;69.12;100410.53;4988625;28;20057;-64
2022/09/08 08:05:24;;;;;;;13.73;3.22;;;;;;;20.54;68.91;100409.28;4994580;28;20057;-64
2022/09/08 08:08:01;;;;;;;21.88;4.45;;;;;;;20.67;68.83;100416.19;5008044;28;20080;-64
2022/09/08 08:10:43;;;;;;;16.08;3.88;;;;;;;20.75;68.24;100419.81;4995092;28;20530;-64
2022/09/08 08:13:24;;;;;;;42.58;5.18;;;;;;;20.91;67.60;100414.75;4975925;28;20053;-64
2022/09/08 08:16:07;;;;;;;46.28;5.40;;;;;;;21.04;67.61;100407.66;4993748;28;20050;-64
2022/09/08 08:18:56;;;;;;;29.95;5.72;;;;;;;21.11;67.49;100418.91;4992299;28;20042;-64
2022/09/08 08:21:47;;;;;;;83.03;8.20;;;;;;;21.06;66.95;100411.66;4986521;28;20053;-64
2022/09/08 08:24:17;;;;;;;35.67;5.50;;;;;;;20.87;67.48;100411.91;4995890;28;20498;-64
2022/09/08 08:26:47;;;;;;;32.50;4.30;;;;;;;21.02;66.95;100415.66;4988754;28;20051;-64
2022/09/08 08:29:33;;;;;;;;;;;;;;;21.03;66.64;100414.44;5001972;28;20046;-65
2022/09/08 08:32:07;;;;;;;49.55;5.50;;;;;;;21.22;66.04;100428.97;4974496;28;19930;-65
2022/09/08 08:35:29;;;;;;;21.13;4.97;;;;;;;21.43;64.84;100417.06;4999254;28;20055;-65
2022/09/08 08:37:56;;;;;;;19.40;4.53;;;;;;;21.33;64.96;100431.03;4987941;28;20050;-65
2022/09/08 08:40:35;;;;;;;19.13;4.45;;;;;;;21.20;65.37;100422.94;4989896;28;21157;-65
2022/09/08 08:43:24;;;;;;;18.80;5.18;;;;;;;21.38;64.91;100428.66;4989862;28;20054;-66
2022/09/08 08:45:58;;;;;;;21.10;4.18;;;;;;;21.47;63.68;100422.69;4991862;28;20054;-65
2022/09/08 08:48:57;;;;;;;15.20;3.80;;;;;;;21.42;64.13;100423.88;4989652;28;20046;-64
2022/09/08 08:51:54;;;;;;;14.43;2.90;;;;;;;21.16;64.32;100435.34;4990598;28;20059;-66
2022/09/08 08:54:31;;;;;;;17.23;4.35;;;;;;;21.29;64.17;100445.00;4985778;28;20513;-66
2022/09/08 08:57:10;;;;;;;20.90;7.05;;;;;;;21.31;63.80;100441.81;4991648;28;20053;-64
2022/09/08 09:00:08;;;;;;;11.25;3.25;;;;;;;21.54;63.43;100448.75;4986803;28;20050;-65
2022/09/08 09:02:47;;;;;;;52.95;6.07;;;;;;;21.76;62.49;100447.63;4991903;28;20065;-64
2022/09/08 09:05:28;;;;;;;19.58;3.65;;;;;;;21.61;62.79;100451.59;4991461;28;20050;-65
2022/09/08 09:08:33;;;;;;;40.40;4.35;;;;;;;21.63;62.67;100454.00;5017973;28;20042;-64
2022/09/08 09:11:23;;;;;;;57.05;7.03;;;;;;;21.34;63.91;100460.66;5004172;28;20405;-65
2022/09/08 09:13:50;;;;;;;40.77;6.17;;;;;;;21.42;64.07;100463.09;4990066;28;20054;-65
2022/09/08 09:16:37;;;;;;;23.90;4.28;;;;;;;21.45;63.54;100456.72;4991781;28;20054;-65
2022/09/08 09:19:43;;;;;;;34.90;6.35;;;;;;;21.36;63.92;100447.06;5014937;28;20051;-65
2022/09/08 09:22:53;;;;;;;29.27;5.00;;;;;;;21.43;64.01;100458.31;4994402;28;20085;-65
2022/09/08 09:25:28;;;;;;;25.95;4.35;;;;;;;21.44;63.93;100460.72;4991816;28;20042;-65
2022/09/08 09:28:29;;;;;;;45.13;6.05;;;;;;;21.64;63.55;100462.00;4990049;28;20050;-64
2022/09/08 09:31:44;;;;;;;22.80;4.15;;;;;;;21.61;63.26;100462.00;4994737;28;20049;-65
2022/09/08 09:34:29;;;;;;;28.52;4.50;;;;;;;21.61;63.50;100457.19;4986326;28;20051;-65
2022/09/08 09:37:27;;;;;;;21.35;4.85;;;;;;;21.64;63.28;100461.19;4988669;28;20062;-64
2022/09/08 09:40:27;;;;;;;23.35;6.03;;;;;;;21.54;63.46;100457.16;4990981;28;20046;-66
2022/09/08 09:43:09;;;;;;;;;;;;;;;21.48;64.03;100460.75;5021203;28;20055;-65
2022/09/08 09:45:46;;;;;;;25.75;6.82;;;;;;;21.38;63.90;100455.88;4987418;28;19936;-68
2022/09/08 09:48:25;;;;;;;14.55;4.05;;;;;;;21.59;63.75;100450.38;4990569;28;20545;-66
2022/09/08 09:50:54;;;;;;;17.95;4.38;;;;;;;21.64;63.66;100442.38;4992914;28;20046;-65
2022/09/08 09:53:27;;;;;;;18.35;4.75;;;;;;;21.65;63.59;100446.81;4997938;28;20078;-66
2022/09/08 09:56:15;;;;;;;21.13;5.20;;;;;;;21.57;63.85;100439.53;5002505;28;20046;-65
2022/09/08 09:58:48;;;;;;;21.50;7.43;;;;;;;21.45;64.59;100434.28;4992769;28;20161;-65
2022/09/08 10:01:31;;;;;;;15.52;4.47;;;;;;;21.71;64.00;100434.00;4997153;28;20512;-65
2022/09/08 10:04:13;;;;;;;14.07;4.22;;;;;;;;;;4996728;28;20391;-65
2022/09/08 10:06:57;;;;;;;24.65;5.18;;;;;;;21.73;63.94;100436.41;5004716;28;20050;-65
2022/09/08 10:09:59;;;;;;;19.95;6.40;;;;;;;21.82;64.06;100432.06;4990895;28;20061;-67
2022/09/08 10:13:09;;;;;;;28.15;4.78;;;;;;;21.97;63.23;100427.28;5002077;28;20622;-66
2022/09/08 10:15:57;;;;;;;14.88;3.35;;;;;;;21.97;63.82;100428.09;5007159;28;20065;-65
2022/09/08 10:19:04;;;;;;;38.80;5.70;;;;;;;21.99;62.70;100427.69;4990692;28;20042;-65
2022/09/08 10:22:12;;;;;;;14.77;4.63;;;;;;;22.15;61.95;100416.91;4993559;28;20046;-65
2022/09/08 10:25:03;;;;;;;16.73;4.82;;;;;;;22.16;62.26;100413.72;4993532;28;20050;-65
2022/09/08 10:27:39;;;;;;;12.68;4.05;;;;;;;21.98;62.47;100412.91;5002940;28;20050;-66
2022/09/08 10:30:29;;;;;;;16.13;3.47;;;;;;;21.75;63.29;100411.59;5016839;28;20054;-65
2022/09/08 10:33:15;;;;;;;;;;;;;;;21.88;62.59;100410.84;4975714;28;20061;-64
2022/09/08 10:35:47;;;;;;;17.15;5.63;;;;;;;21.81;64.13;100405.22;4991265;28;20402;-68
2022/09/08 10:38:53;;;;;;;18.70;4.50;;;;;;;21.83;63.65;100396.41;5015330;28;20054;-66
2022/09/08 10:41:42;;;;;;;17.90;6.55;;;;;;;21.97;63.89;100397.25;4988498;28;20071;-66
2022/09/08 10:44:39;;;;;;;17.50;5.18;;;;;;;22.14;63.21;100390.84;4995978;28;20402;-66
2022/09/08 10:47:25;;;;;;;22.73;9.13;;;;;;;22.32;62.06;100390.88;4992008;28;20053;-66
2022/09/08 10:50:19;;;;;;;23.65;6.35;;;;;;;22.10;61.77;100392.88;4994855;28;20042;-65
2022/09/08 10:53:03;;;;;;;16.52;5.88;;;;;;;22.57;59.59;100388.09;4985572;28;20054;-66
2022/09/08 10:55:51;;;;;;;13.70;5.28;;;;;;;22.34;60.00;100394.91;5005776;28;20070;-67
2022/09/08 10:58:21;;;;;;;13.77;4.78;;;;;;;22.45;59.62;100392.09;4969062;28;20065;-66
2022/09/08 11:00:56;;;;;;;;;;;;;;;22.41;59.49;100398.88;4987195;28;20051;-65
2022/09/08 11:03:51;;;;;;;9.05;3.17;;;;;;;22.64;58.05;100388.09;4987552;28;19929;-65
2022/09/08 11:06:35;;;;;;;11.55;4.53;;;;;;;22.50;57.77;100382.44;4988896;28;20057;-66
2022/09/08 11:09:25;;;;;;;14.98;5.50;;;;;;;22.54;58.19;100383.25;5008115;28;20062;-66
2022/09/08 11:12:28;;;;;;;19.17;9.93;;;;;;;22.82;57.75;100383.25;4990709;28;20064;-65
2022/09/08 11:15:21;;;;;;;28.80;14.02;;;;;;;22.68;56.72;100392.53;5003826;28;20065;-66
2022/09/08 11:17:50;;;;;;;21.33;7.15;;;;;;;22.75;56.49;100381.25;4982538;28;20043;-66
2022/09/08 11:20:34;;;;;;;24.92;6.65;;;;;;;22.72;56.00;100390.50;5000177;28;20050;-66
2022/09/08 11:23:11;;;;;;;13.88;4.90;;;;;;;22.87;55.57;100394.09;4994449;28;20077;-66
2022/09/08 11:25:57;;;;;;;16.00;4.40;;;;;;;22.94;55.70;100389.25;4986053;28;20058;-66
2022/09/08 11:28:46;;;;;;;28.98;15.02;;;;;;;23.21;55.24;100392.38;5005728;28;20055;-66
2022/09/08 11:31:20;;;;;;;12.32;3.65;;;;;;;23.29;54.73;100394.78;5004061;28;20046;-66
2022/09/08 11:33:54;;;;;;;10.60;2.40;;;;;;;23.31;54.84;100398.00;4998486;28;20053;-67
2022/09/08 11:36:31;;;;;;;42.75;6.07;;;;;;;23.22;54.23;100402.44;5001650;28;20058;-66
2022/09/08 11:39:21;;;;;;;66.65;9.40;;;;;;;23.06;55.23;100397.25;5006464;28;20110;-66
2022/09/08 11:42:07;;;;;;;;;;;;;;;22.84;55.45;100397.72;5007510;28;20065;-66
2022/09/08 11:44:38;;;;;;;32.30;4.70;;;;;;;22.94;55.88;100400.50;5021047;28;19941;-66
2022/09/08 11:47:36;;;;;;;19.65;3.30;;;;;;;22.97;55.55;100402.50;5027052;28;20441;-66
2022/09/08 11:50:21;;;;;;;15.55;3.40;;;;;;;22.90;55.87;100384.84;4994112;28;20062;-66
2022/09/08 11:53:23;;;;;;;12.63;2.85;;;;;;;22.79;55.87;100386.84;5026860;28;20517;-66
2022/09/08 11:56:13;;;;;;;23.48;4.00;;;;;;;22.83;55.85;100382.03;4983820;28;20050;-65
2022/09/08 11:58:58;;;;;;;19.23;3.22;;;;;;;22.45;57.13;100378.06;4995646;28;20054;-65
2022/09/08 12:01:38;;;;;;;19.42;3.95;;;;;;;22.95;55.69;100385.25;4999071;28;20042;-65
2022/09/08 12:04:37;;;;;;;16.52;3.60;;;;;;;22.99;54.86;100374.81;4996595;28;20057;-66
2022/09/08 12:07:10;;;;;;;13.80;4.60;;;;;;;23.04;54.64;100376.38;4997574;28;20063;-67
2022/09/08 12:09:49;;;;;;;20.55;5.93;;;;;;;22.99;54.61;100368.38;4991077;28;20149;-66